Time,TemperatureF,DewpointF,PressureIn,WindDirection,WindDirectionDegrees,WindSpeedMPH,WindSpeedGustMPH,Humidity,HourlyPrecipIn,Conditions,Clouds,dailyrainin,SoftwareType,DateUTC
2013-01-25 00:01:00,49.0,47.0,-100.00,North,3,4.0,8.0,92,0.01,,,0.58,,2013-01-25 08:01:00,
2013-01-25 00:11:00,49.0,47.0,-100.00,North,3,4.0,8.0,92,0.01,,,0.58,,2013-01-25 08:11:00,
2013-01-25 00:42:00,49.0,47.0,-100.00,NE,38,7.0,8.0,93,0.00,,,0.55,,2013-01-25 08:42:00,
2013-01-25 00:52:00,49.0,47.0,-100.00,NE,38,7.0,8.0,93,0.00,,,0.55,,2013-01-25 08:52:00,
2013-01-25 01:01:00,49.0,47.0,-100.00,NE,38,7.0,8.0,93,0.00,,,0.55,,2013-01-25 09:01:00,
2013-01-25 01:11:00,49.0,47.0,-100.00,NE,38,7.0,8.0,93,0.00,,,0.55,,2013-01-25 09:11:00,
2013-01-25 01:42:00,49.0,47.0,-100.00,NNE,24,6.0,8.0,93,0.01,,,0.54,,2013-01-25 09:42:00,
2013-01-25 01:52:00,49.0,47.0,-100.00,NNE,24,6.0,8.0,93,0.01,,,0.54,,2013-01-25 09:52:00,
2013-01-25 02:01:00,49.0,47.0,-100.00,NNE,24,6.0,8.0,93,0.01,,,0.54,,2013-01-25 10:01:00,
2013-01-25 02:11:00,49.0,47.0,-100.00,NNE,24,6.0,8.0,93,0.01,,,0.54,,2013-01-25 10:11:00,
2013-01-25 02:42:00,50.0,48.0,-100.00,East,96,2.0,11.0,93,0.01,,,0.55,,2013-01-25 10:42:00,
2013-01-25 02:52:00,50.0,48.0,-100.00,East,96,2.0,11.0,93,0.01,,,0.55,,2013-01-25 10:52:00,
2013-01-25 03:02:00,50.0,48.0,-100.00,East,96,2.0,11.0,93,0.01,,,0.55,,2013-01-25 11:02:00,
2013-01-25 03:11:00,50.0,48.0,-100.00,East,96,2.0,11.0,93,0.01,,,0.55,,2013-01-25 11:11:00,
2013-01-25 03:42:00,49.0,47.0,-100.00,NNE,14,4.0,6.0,93,0.00,,,-99.99,,2013-01-25 11:42:00,
2013-01-25 03:52:00,49.0,47.0,-100.00,NNE,14,4.0,6.0,93,0.00,,,-99.99,,2013-01-25 11:52:00,
2013-01-25 04:02:00,49.0,47.0,-100.00,NNE,14,4.0,6.0,93,0.00,,,-99.99,,2013-01-25 12:02:00,
2013-01-25 04:11:00,49.0,47.0,-100.00,NNE,14,4.0,6.0,93,0.00,,,-99.99,,2013-01-25 12:11:00,
2013-01-25 04:33:00,49.0,47.0,-100.00,NNE,15,5.0,10.0,93,0.05,,,0.60,,2013-01-25 12:33:00,
2013-01-25 04:42:00,49.0,47.0,-100.00,NNE,15,5.0,10.0,93,0.05,,,0.60,,2013-01-25 12:42:00,
2013-01-25 04:53:00,49.0,47.0,-100.00,NNE,15,5.0,10.0,93,0.05,,,0.60,,2013-01-25 12:53:00,
2013-01-25 05:02:00,49.0,47.0,-100.00,NNE,15,5.0,10.0,93,0.05,,,0.60,,2013-01-25 13:02:00,
2013-01-25 05:11:00,49.0,47.0,-100.00,NNE,15,5.0,10.0,93,0.05,,,0.60,,2013-01-25 13:11:00,
2013-01-25 05:43:00,50.0,48.0,-100.00,WNW,302,1.0,8.0,93,0.01,,,0.61,,2013-01-25 13:43:00,
2013-01-25 05:52:00,50.0,48.0,-100.00,WNW,302,1.0,8.0,93,0.01,,,0.61,,2013-01-25 13:52:00,
2013-01-25 06:02:00,50.0,48.0,-100.00,WNW,302,1.0,8.0,93,0.01,,,0.61,,2013-01-25 14:02:00,
2013-01-25 06:12:00,50.0,48.0,-100.00,WNW,302,1.0,8.0,93,0.01,,,0.61,,2013-01-25 14:12:00,
2013-01-25 06:42:00,49.0,47.0,-100.00,North,359,5.0,7.0,93,0.00,,,0.61,,2013-01-25 14:42:00,
2013-01-25 06:53:00,49.0,47.0,-100.00,North,359,5.0,7.0,93,0.00,,,0.61,,2013-01-25 14:53:00,
2013-01-25 07:02:00,49.0,47.0,-100.00,North,359,5.0,7.0,93,0.00,,,0.61,,2013-01-25 15:02:00,
2013-01-25 07:11:00,49.0,47.0,-100.00,North,359,5.0,7.0,93,0.00,,,0.61,,2013-01-25 15:11:00,
2013-01-25 07:43:00,49.0,47.0,-100.00,NE,44,8.0,11.0,93,0.00,,,0.61,,2013-01-25 15:43:00,
2013-01-25 07:53:00,49.0,47.0,-100.00,NE,44,8.0,11.0,93,0.00,,,0.61,,2013-01-25 15:53:00,
2013-01-25 08:02:00,49.0,47.0,-100.00,NE,44,8.0,11.0,93,0.00,,,0.61,,2013-01-25 16:02:00,
2013-01-25 08:11:00,49.0,47.0,-100.00,NE,44,8.0,11.0,93,0.00,,,0.61,,2013-01-25 16:11:00,
2013-01-25 08:43:00,50.0,48.0,-100.00,NE,49,10.0,13.0,93,0.00,,,0.61,,2013-01-25 16:43:00,
2013-01-25 08:53:00,50.0,48.0,-100.00,NE,49,10.0,13.0,93,0.00,,,0.61,,2013-01-25 16:53:00,
2013-01-25 09:02:00,50.0,48.0,-100.00,NE,49,10.0,13.0,93,0.00,,,0.61,,2013-01-25 17:02:00,
2013-01-25 09:11:00,50.0,48.0,-100.00,NE,49,10.0,13.0,93,0.00,,,0.61,,2013-01-25 17:11:00,
2013-01-25 09:43:00,50.0,48.0,-100.00,NE,37,6.0,10.0,93,0.00,,,0.61,,2013-01-25 17:43:00,
2013-01-25 09:53:00,50.0,48.0,-100.00,NE,37,6.0,10.0,93,0.00,,,0.61,,2013-01-25 17:53:00,
2013-01-25 10:02:00,50.0,48.0,-100.00,NE,37,6.0,10.0,93,0.00,,,0.61,,2013-01-25 18:02:00,
2013-01-25 10:11:00,50.0,48.0,-100.00,NE,37,6.0,10.0,93,0.00,,,0.61,,2013-01-25 18:11:00,
2013-01-25 10:43:00,53.0,51.0,-100.00,NE,35,4.0,10.0,93,0.00,,,0.61,,2013-01-25 18:43:00,
2013-01-25 10:52:00,53.0,51.0,-100.00,NE,35,4.0,10.0,93,0.00,,,0.61,,2013-01-25 18:52:00,
2013-01-25 11:02:00,53.0,51.0,-100.00,NE,35,4.0,10.0,93,0.00,,,0.61,,2013-01-25 19:02:00,
2013-01-25 11:12:00,53.0,51.0,-100.00,NE,35,4.0,10.0,93,0.00,,,0.61,,2013-01-25 19:12:00,
2013-01-25 11:42:00,56.0,53.0,-100.00,NE,40,5.0,25.0,91,0.00,,,0.61,,2013-01-25 19:42:00,
2013-01-25 11:53:00,56.0,53.0,-100.00,NE,40,5.0,25.0,91,0.00,,,0.61,,2013-01-25 19:53:00,
2013-01-25 12:02:00,56.0,53.0,-100.00,NE,40,5.0,25.0,91,0.00,,,0.61,,2013-01-25 20:02:00,
2013-01-25 12:11:00,56.0,53.0,-100.00,NE,40,5.0,25.0,91,0.00,,,0.61,,2013-01-25 20:11:00,
2013-01-25 12:43:00,60.0,55.0,-100.00,SW,223,3.0,19.0,83,0.00,,,-99.99,,2013-01-25 20:43:00,
2013-01-25 12:52:00,60.0,55.0,-100.00,SW,223,3.0,19.0,83,0.00,,,-99.99,,2013-01-25 20:52:00,
2013-01-25 13:02:00,60.0,55.0,-100.00,SW,223,3.0,19.0,83,0.00,,,-99.99,,2013-01-25 21:02:00,
2013-01-25 13:11:00,60.0,55.0,-100.00,SW,223,3.0,19.0,83,0.00,,,-99.99,,2013-01-25 21:11:00,
2013-01-25 13:43:00,58.0,53.0,-100.00,West,270,7.0,11.0,82,0.00,,,0.55,,2013-01-25 21:43:00,
2013-01-25 13:52:00,58.0,53.0,-100.00,West,270,7.0,11.0,82,0.00,,,0.55,,2013-01-25 21:52:00,
2013-01-25 14:02:00,58.0,53.0,-100.00,West,270,7.0,11.0,82,0.00,,,0.55,,2013-01-25 22:02:00,
2013-01-25 14:11:00,58.0,53.0,-100.00,West,270,7.0,11.0,82,0.00,,,0.55,,2013-01-25 22:11:00,
2013-01-25 14:42:00,59.0,53.0,-100.00,North,360,4.0,12.0,80,0.00,,,0.50,,2013-01-25 22:42:00,
2013-01-25 14:52:00,59.0,53.0,-100.00,North,360,4.0,12.0,80,0.00,,,0.50,,2013-01-25 22:52:00,
2013-01-25 15:02:00,59.0,53.0,-100.00,North,360,4.0,12.0,80,0.00,,,0.50,,2013-01-25 23:02:00,
2013-01-25 15:11:00,59.0,53.0,-100.00,North,360,4.0,12.0,80,0.00,,,0.50,,2013-01-25 23:11:00,
2013-01-25 15:42:00,60.0,53.0,-100.00,NW,323,4.0,11.0,77,0.00,,,0.36,,2013-01-25 23:42:00,
2013-01-25 15:52:00,60.0,53.0,-100.00,NW,323,4.0,11.0,77,0.00,,,0.36,,2013-01-25 23:52:00,
2013-01-25 16:01:00,60.0,53.0,-100.00,NW,323,4.0,11.0,77,0.00,,,0.36,,2013-01-26 00:01:00,
2013-01-25 16:11:00,60.0,53.0,-100.00,NW,323,4.0,11.0,77,0.00,,,0.36,,2013-01-26 00:11:00,
2013-01-25 16:42:00,60.0,53.0,-100.00,NW,305,4.0,6.0,78,0.00,,,0.21,,2013-01-26 00:42:00,
2013-01-25 16:53:00,60.0,53.0,-100.00,NW,305,4.0,6.0,78,0.00,,,0.21,,2013-01-26 00:53:00,
2013-01-25 17:01:00,60.0,53.0,-100.00,NW,305,4.0,6.0,78,0.00,,,0.21,,2013-01-26 01:01:00,
2013-01-25 17:11:00,60.0,53.0,-100.00,NW,305,4.0,6.0,78,0.00,,,0.21,,2013-01-26 01:11:00,
2013-01-25 17:32:00,57.0,53.0,-100.00,NNW,347,6.0,36.0,85,0.00,,,0.14,,2013-01-26 01:32:00,
2013-01-25 17:42:00,57.0,53.0,-100.00,NNW,347,6.0,36.0,85,0.00,,,0.14,,2013-01-26 01:42:00,
2013-01-25 17:52:00,57.0,53.0,-100.00,NNW,347,6.0,36.0,85,0.00,,,0.14,,2013-01-26 01:52:00,
2013-01-25 18:01:00,57.0,53.0,-100.00,NNW,347,6.0,36.0,85,0.00,,,0.14,,2013-01-26 02:01:00,
2013-01-25 18:11:00,57.0,53.0,-100.00,NNW,347,6.0,36.0,85,0.00,,,0.14,,2013-01-26 02:11:00,
2013-01-25 18:42:00,55.0,52.0,-100.00,NNE,20,4.0,10.0,89,0.00,,,0.10,,2013-01-26 02:42:00,
2013-01-25 18:52:00,55.0,52.0,-100.00,NNE,20,4.0,10.0,89,0.00,,,0.10,,2013-01-26 02:52:00,
2013-01-25 19:01:00,55.0,52.0,-100.00,NNE,20,4.0,10.0,89,0.00,,,0.10,,2013-01-26 03:01:00,
2013-01-25 19:11:00,55.0,52.0,-100.00,NNE,20,4.0,10.0,89,0.00,,,0.10,,2013-01-26 03:11:00,
2013-01-25 19:32:00,54.0,51.0,-100.00,North,353,4.0,8.0,90,0.00,,,0.09,,2013-01-26 03:32:00,
2013-01-25 19:43:00,54.0,51.0,-100.00,North,353,4.0,8.0,90,0.00,,,0.09,,2013-01-26 03:43:00,
2013-01-25 19:52:00,54.0,51.0,-100.00,North,353,4.0,8.0,90,0.00,,,0.09,,2013-01-26 03:52:00,
2013-01-25 20:01:00,54.0,51.0,-100.00,North,353,4.0,8.0,90,0.00,,,0.09,,2013-01-26 04:01:00,
2013-01-25 20:12:00,54.0,51.0,-100.00,North,353,4.0,8.0,90,0.00,,,0.09,,2013-01-26 04:12:00,
2013-01-25 20:32:00,54.0,51.0,-100.00,SW,223,3.0,6.0,91,0.00,,,0.09,,2013-01-26 04:32:00,
2013-01-25 20:42:00,54.0,51.0,-100.00,SW,223,3.0,6.0,91,0.00,,,0.09,,2013-01-26 04:42:00,
2013-01-25 20:52:00,54.0,51.0,-100.00,SW,223,3.0,6.0,91,0.00,,,0.09,,2013-01-26 04:52:00,
2013-01-25 21:03:00,54.0,51.0,-100.00,SW,223,3.0,6.0,91,0.00,,,0.09,,2013-01-26 05:03:00,
2013-01-25 21:12:00,54.0,51.0,-100.00,SW,223,3.0,6.0,91,0.00,,,0.09,,2013-01-26 05:12:00,
2013-01-25 21:33:00,53.0,51.0,-100.00,SSW,194,2.0,5.0,92,0.00,,,0.09,,2013-01-26 05:33:00,
2013-01-25 21:42:00,53.0,51.0,-100.00,SSW,194,2.0,5.0,92,0.00,,,0.09,,2013-01-26 05:42:00,
2013-01-25 21:52:00,53.0,51.0,-100.00,SSW,194,2.0,5.0,92,0.00,,,0.09,,2013-01-26 05:52:00,
2013-01-25 22:02:00,53.0,51.0,-100.00,SSW,194,2.0,5.0,92,0.00,,,0.09,,2013-01-26 06:02:00,
2013-01-25 22:11:00,53.0,51.0,-100.00,SSW,194,2.0,5.0,92,0.00,,,0.09,,2013-01-26 06:11:00,
2013-01-25 22:32:00,53.0,51.0,-100.00,ESE,114,2.0,3.0,92,0.00,,,0.09,,2013-01-26 06:32:00,
2013-01-25 22:42:00,53.0,51.0,-100.00,ESE,114,2.0,3.0,92,0.00,,,0.09,,2013-01-26 06:42:00,
2013-01-25 22:52:00,53.0,51.0,-100.00,ESE,114,2.0,3.0,92,0.00,,,0.09,,2013-01-26 06:52:00,
2013-01-25 23:01:00,53.0,51.0,-100.00,ESE,114,2.0,3.0,92,0.00,,,0.09,,2013-01-26 07:01:00,
2013-01-25 23:11:00,53.0,51.0,-100.00,ESE,114,2.0,3.0,92,0.00,,,0.09,,2013-01-26 07:11:00,
2013-01-25 23:33:00,53.0,50.0,-100.00,South,190,4.0,6.0,91,0.00,,,0.08,,2013-01-26 07:33:00,
2013-01-25 23:42:00,53.0,50.0,-100.00,South,190,4.0,6.0,91,0.00,,,0.08,,2013-01-26 07:42:00,
2013-01-25 23:52:00,53.0,50.0,-100.00,South,190,4.0,6.0,91,0.00,,,0.08,,2013-01-26 07:52:00,